createdAt,value
2016-10-08T00:00:52.233Z,12.26
2016-10-08T00:01:51.904Z,12.23
2016-10-08T00:02:51.891Z,12.16
2016-10-08T00:03:51.881Z,12.24
2016-10-08T00:04:51.864Z,12.23
2016-10-08T00:05:52.302Z,12.26
2016-10-08T00:06:51.860Z,12.26
2016-10-08T00:07:51.830Z,12.26
2016-10-08T00:08:51.816Z,12.2
2016-10-08T00:09:51.807Z,12.23
2016-10-08T00:10:51.790Z,12.21
2016-10-08T00:11:51.777Z,12.2
2016-10-08T00:12:52.078Z,12.13
2016-10-08T00:13:51.751Z,12.16
2016-10-08T00:14:51.738Z,12.19
2016-10-08T00:15:51.728Z,12.2
2016-10-08T00:16:52.035Z,12.19
2016-10-08T00:17:51.698Z,12.15
2016-10-08T00:18:51.691Z,12.13
2016-10-08T00:19:51.677Z,12.13
2016-10-08T00:20:51.666Z,12.02
2016-10-08T00:21:51.651Z,12.06
2016-10-08T00:22:51.635Z,12.02
2016-10-08T00:23:51.631Z,12.13
2016-10-08T00:24:51.609Z,12.06
2016-10-08T00:25:51.601Z,12.06
2016-10-08T00:26:51.587Z,11.94
2016-10-08T00:27:51.576Z,12.04
2016-10-08T00:28:51.561Z,11.93
2016-10-08T00:29:51.548Z,12.02
2016-10-08T00:30:51.856Z,11.9
2016-10-08T00:31:51.519Z,11.97
2016-10-08T00:32:51.510Z,11.93
2016-10-08T00:33:51.814Z,11.97
2016-10-08T00:34:51.798Z,11.99
2016-10-08T00:35:51.474Z,11.89
2016-10-08T00:36:51.457Z,11.99
2016-10-08T00:37:51.447Z,11.86
2016-10-08T00:38:51.435Z,11.96
2016-10-08T00:39:51.417Z,11.96
2016-10-08T00:40:51.410Z,11.96
2016-10-08T00:41:51.396Z,11.9
2016-10-08T00:42:51.380Z,11.94
2016-10-08T00:43:51.365Z,11.97
2016-10-08T00:44:51.358Z,11.9
2016-10-08T00:45:51.341Z,11.82
2016-10-08T00:46:51.331Z,11.85
2016-10-08T00:47:51.319Z,11.8
2016-10-08T00:48:51.308Z,11.82
2016-10-08T00:49:51.290Z,11.78
2016-10-08T00:50:51.278Z,11.8
2016-10-08T00:51:51.266Z,11.78
2016-10-08T00:52:51.254Z,11.8
2016-10-08T00:53:51.239Z,11.8
2016-10-08T00:54:51.229Z,11.82
2016-10-08T00:55:51.211Z,11.77
2016-10-08T00:56:51.205Z,11.8
2016-10-08T00:57:51.186Z,11.8
2016-10-08T00:58:51.177Z,11.64
2016-10-08T00:59:51.161Z,11.77
2016-10-08T01:00:51.149Z,11.8
2016-10-08T01:01:51.138Z,11.78
2016-10-08T01:02:51.330Z,11.78
2016-10-08T01:03:51.107Z,11.78
2016-10-08T01:04:51.098Z,11.78
2016-10-08T01:05:51.083Z,11.74
2016-10-08T01:06:51.073Z,11.85
2016-10-08T01:07:51.062Z,11.65
2016-10-08T01:08:51.571Z,11.65
2016-10-08T01:09:51.037Z,11.77
2016-10-08T01:10:51.023Z,11.64
2016-10-08T01:11:51.010Z,11.77
2016-10-08T01:12:51.314Z,11.86
2016-10-08T01:13:51.000Z,11.78
2016-10-08T01:14:51.285Z,11.82
2016-10-08T01:15:50.959Z,11.77
2016-10-08T01:16:50.939Z,11.74
2016-10-08T01:17:51.242Z,11.65
2016-10-08T01:18:50.917Z,11.67
2016-10-08T01:19:50.907Z,11.85
2016-10-08T01:20:50.893Z,11.85
2016-10-08T01:21:50.878Z,11.68
2016-10-08T01:22:50.867Z,11.8
2016-10-08T01:23:50.849Z,11.68
2016-10-08T01:24:50.841Z,11.72
2016-10-08T01:25:50.825Z,11.71
2016-10-08T01:26:50.810Z,11.68
2016-10-08T01:27:50.800Z,11.71
2016-10-08T01:28:50.794Z,11.67
2016-10-08T01:29:50.778Z,11.62
2016-10-08T01:30:50.812Z,11.65
2016-10-08T01:31:50.749Z,11.54
2016-10-08T01:32:50.732Z,11.67
2016-10-08T01:33:50.722Z,11.54
2016-10-08T01:34:51.019Z,11.52
2016-10-08T01:35:51.013Z,11.56
2016-10-08T01:36:50.999Z,11.56
2016-10-08T01:37:50.669Z,11.54
2016-10-08T01:38:50.653Z,11.46
2016-10-08T01:39:50.644Z,11.59
2016-10-08T01:40:50.633Z,11.56
2016-10-08T01:41:50.620Z,11.56
2016-10-08T01:42:50.924Z,11.56
2016-10-08T01:43:50.590Z,11.47
2016-10-08T01:44:50.577Z,11.46
2016-10-08T01:45:50.563Z,11.39
2016-10-08T01:46:50.557Z,11.41
2016-10-08T01:47:50.541Z,11.47
2016-10-08T01:48:50.522Z,11.34
2016-10-08T01:49:50.519Z,11.36
2016-10-08T01:50:50.496Z,11.36
2016-10-08T01:51:50.800Z,11.31
2016-10-08T01:52:50.469Z,11.34
2016-10-08T01:53:50.460Z,11.35
2016-10-08T01:54:50.449Z,11.27
2016-10-08T01:55:50.435Z,11.32
2016-10-08T01:56:50.735Z,11.28
2016-10-08T01:57:50.407Z,11.27
2016-10-08T01:58:50.395Z,11.25
2016-10-08T01:59:50.379Z,11.27
2016-10-08T02:00:50.372Z,11.21
2016-10-08T02:01:50.354Z,11.24
2016-10-08T02:02:50.341Z,11.17
2016-10-08T02:03:50.328Z,11.2
2016-10-08T02:04:50.316Z,11.25
2016-10-08T02:05:50.296Z,11.13
2016-10-08T02:06:50.286Z,11.11
2016-10-08T02:07:50.271Z,11.16
2016-10-08T02:08:50.260Z,11.14
2016-10-08T02:09:50.243Z,11.14
2016-10-08T02:10:50.547Z,11.19
2016-10-08T02:11:50.222Z,11.13
2016-10-08T02:12:50.207Z,11.11
2016-10-08T02:13:50.234Z,11.11
2016-10-08T02:14:50.182Z,11.14
2016-10-08T02:15:50.167Z,11.14
2016-10-08T02:16:50.468Z,11.09
2016-10-08T02:17:50.147Z,11.14
2016-10-08T02:18:50.131Z,11.09
2016-10-08T02:19:50.116Z,11.17
2016-10-08T02:20:50.102Z,11.06
2016-10-08T02:21:50.100Z,11.11
2016-10-08T02:22:50.073Z,11.03
2016-10-08T02:23:50.065Z,11.11
2016-10-08T02:24:50.360Z,11.01
2016-10-08T02:25:50.031Z,10.98
2016-10-08T02:26:50.335Z,11.01
2016-10-08T02:27:50.004Z,10.98
2016-10-08T02:28:49.993Z,10.95
2016-10-08T02:29:50.291Z,10.95
2016-10-08T02:30:49.968Z,10.98
2016-10-08T02:31:50.270Z,10.91
2016-10-08T02:32:49.951Z,10.8
2016-10-08T02:33:49.923Z,10.86
2016-10-08T02:34:49.911Z,10.78
2016-10-08T02:35:49.895Z,10.78
2016-10-08T02:36:49.885Z,10.76
2016-10-08T02:37:49.867Z,10.76
2016-10-08T02:38:50.171Z,10.73
2016-10-08T02:39:49.840Z,10.77
2016-10-08T02:40:49.837Z,10.73
2016-10-08T02:41:49.816Z,10.63
2016-10-08T02:42:50.117Z,10.6
2016-10-08T02:43:49.788Z,10.58
2016-10-08T02:44:50.094Z,10.59
2016-10-08T02:45:49.765Z,10.51
2016-10-08T02:46:49.745Z,10.51
2016-10-08T02:47:49.737Z,10.44
2016-10-08T02:48:49.721Z,10.43
2016-10-08T02:49:49.711Z,10.37
2016-10-08T02:50:49.691Z,10.36
2016-10-08T02:51:49.680Z,10.33
2016-10-08T02:52:49.667Z,10.34
2016-10-08T02:53:49.658Z,10.36
2016-10-08T02:54:49.637Z,10.25
2016-10-08T02:55:49.627Z,10.28
2016-10-08T02:56:49.609Z,10.19
2016-10-08T02:57:49.596Z,10.21
2016-10-08T02:58:49.578Z,10.21
2016-10-08T02:59:49.573Z,10.17
2016-10-08T03:00:49.553Z,10.22
2016-10-08T03:01:49.852Z,10.19
2016-10-08T03:02:49.727Z,10.01
2016-10-08T03:03:49.515Z,10.12
2016-10-08T03:04:49.494Z,10.09
2016-10-08T03:05:49.481Z,10.09
2016-10-08T03:06:49.464Z,10.04
2016-10-08T03:07:49.767Z,10.01
2016-10-08T03:08:49.451Z,9.94
2016-10-08T03:09:49.739Z,9.96
2016-10-08T03:10:49.420Z,9.89
2016-10-08T03:11:49.413Z,9.99
2016-10-08T03:12:49.389Z,10
2016-10-08T03:13:49.386Z,9.88
2016-10-08T03:14:49.379Z,9.88
2016-10-08T03:15:49.342Z,9.82
2016-10-08T03:16:49.324Z,9.79
2016-10-08T03:17:49.319Z,9.71
2016-10-08T03:18:49.611Z,9.73
2016-10-08T03:19:49.284Z,9.75
2016-10-08T03:20:49.581Z,9.73
2016-10-08T03:21:49.256Z,9.7
2016-10-08T03:22:49.552Z,9.66
2016-10-08T03:23:49.224Z,9.6
2016-10-08T03:24:49.213Z,9.6
2016-10-08T03:25:49.203Z,9.6
2016-10-08T03:26:49.186Z,9.56
2016-10-08T03:27:49.163Z,9.73
2016-10-08T03:28:49.470Z,9.68
2016-10-08T03:29:49.138Z,9.71
2016-10-08T03:30:49.122Z,9.68
2016-10-08T03:31:49.116Z,9.73
2016-10-08T03:32:49.091Z,9.79
2016-10-08T03:33:49.083Z,9.94
2016-10-08T03:34:49.066Z,9.99
2016-10-08T03:35:49.066Z,10
2016-10-08T03:36:49.034Z,10.01
2016-10-08T03:37:49.027Z,9.97
2016-10-08T03:38:49.008Z,9.94
2016-10-08T03:39:48.995Z,9.93
2016-10-08T03:40:48.981Z,9.97
2016-10-08T03:41:48.968Z,10
2016-10-08T03:42:48.959Z,10.01
2016-10-08T03:43:48.941Z,9.94
2016-10-08T03:44:48.922Z,10.06
2016-10-08T03:45:48.909Z,10.01
2016-10-08T03:46:48.895Z,10.01
2016-10-08T03:47:48.879Z,9.97
2016-10-08T03:48:48.868Z,9.96
2016-10-08T03:49:48.852Z,9.91
2016-10-08T03:50:48.834Z,9.91
2016-10-08T03:51:48.824Z,10
2016-10-08T03:52:48.807Z,9.97
2016-10-08T03:53:49.105Z,9.83
2016-10-08T03:54:48.778Z,9.88
2016-10-08T03:55:48.763Z,9.76
2016-10-08T03:56:48.764Z,9.83
2016-10-08T03:57:48.748Z,9.76
2016-10-08T03:58:48.728Z,9.67
2016-10-08T03:59:49.018Z,9.75
2016-10-08T04:00:49.342Z,9.67
2016-10-08T04:01:48.675Z,9.58
2016-10-08T04:02:48.978Z,9.64
2016-10-08T04:03:48.648Z,9.6
2016-10-08T04:04:48.657Z,9.56
2016-10-08T04:05:48.642Z,9.57
2016-10-08T04:06:48.925Z,9.49
2016-10-08T04:07:48.955Z,9.45
2016-10-08T04:08:48.897Z,9.42
2016-10-08T04:09:48.909Z,9.4
2016-10-08T04:10:48.553Z,9.39
2016-10-08T04:11:48.857Z,9.4
2016-10-08T04:12:48.516Z,9.25
2016-10-08T04:13:48.835Z,9.32
2016-10-08T04:14:48.805Z,9.27
2016-10-08T04:15:48.805Z,9.28
2016-10-08T04:16:48.460Z,9.21
2016-10-08T04:17:48.447Z,9.24
2016-10-08T04:18:48.747Z,9.2
2016-10-08T04:19:48.419Z,9.27
2016-10-08T04:20:48.402Z,9.2
2016-10-08T04:21:48.698Z,9.16
2016-10-08T04:22:48.371Z,9.09
2016-10-08T04:23:48.672Z,9.13
2016-10-08T04:24:48.655Z,9.09
2016-10-08T04:25:48.326Z,9.12
2016-10-08T04:26:48.316Z,9.04
2016-10-08T04:27:48.293Z,8.97
2016-10-08T04:28:48.284Z,8.97
2016-10-08T04:29:48.262Z,8.93
2016-10-08T04:30:48.254Z,8.91
2016-10-08T04:31:48.556Z,8.91
2016-10-08T04:32:48.542Z,8.94
2016-10-08T04:33:48.209Z,8.93
2016-10-08T04:34:48.199Z,8.83
2016-10-08T04:35:48.176Z,8.86
2016-10-08T04:36:48.160Z,8.79
2016-10-08T04:37:48.145Z,8.83
2016-10-08T04:38:48.134Z,8.81
2016-10-08T04:39:48.432Z,8.83
2016-10-08T04:40:48.099Z,8.79
2016-10-08T04:41:48.089Z,8.73
2016-10-08T04:42:48.071Z,8.72
2016-10-08T04:43:48.059Z,8.75
2016-10-08T04:44:48.043Z,8.73
2016-10-08T04:45:48.032Z,8.54
2016-10-08T04:46:48.329Z,8.58
2016-10-08T04:47:47.997Z,8.58
2016-10-08T04:48:47.991Z,8.68
2016-10-08T04:49:47.965Z,8.62
2016-10-08T04:50:47.951Z,8.65
2016-10-08T04:51:47.936Z,8.69
2016-10-08T04:52:47.923Z,8.57
2016-10-08T04:53:47.907Z,8.66
2016-10-08T04:54:48.524Z,8.65
2016-10-08T04:55:47.877Z,8.62
2016-10-08T04:56:47.863Z,8.65
2016-10-08T04:57:47.848Z,8.63
2016-10-08T04:58:47.837Z,8.68
2016-10-08T04:59:47.817Z,8.55
2016-10-08T05:00:47.803Z,8.58
2016-10-08T05:01:48.100Z,8.55
2016-10-08T05:02:47.972Z,8.53
2016-10-08T05:03:47.755Z,8.57
2016-10-08T05:04:48.057Z,8.4
2016-10-08T05:05:47.721Z,8.5
2016-10-08T05:06:47.708Z,8.42
2016-10-08T05:07:47.692Z,8.37
2016-10-08T05:08:47.687Z,8.37
2016-10-08T05:09:47.659Z,8.3
2016-10-08T05:10:47.647Z,8.32
2016-10-08T05:11:47.946Z,8.3
2016-10-08T05:12:47.621Z,8.25
2016-10-08T05:13:47.959Z,8.2
2016-10-08T05:14:47.586Z,8.18
2016-10-08T05:15:47.571Z,8.22
2016-10-08T05:16:47.562Z,8.2
2016-10-08T05:17:47.853Z,8.15
2016-10-08T05:18:47.527Z,8.11
2016-10-08T05:19:47.510Z,8.14
2016-10-08T05:20:47.496Z,8.1
2016-10-08T05:21:47.478Z,8.11
2016-10-08T05:22:47.463Z,8.02
2016-10-08T05:23:47.447Z,8.02
2016-10-08T05:24:47.441Z,8
2016-10-08T05:25:47.415Z,7.99
2016-10-08T05:26:47.405Z,8
2016-10-08T05:27:47.387Z,8.02
2016-10-08T05:28:47.376Z,7.9
2016-10-08T05:29:47.354Z,7.85
2016-10-08T05:30:47.348Z,7.84
2016-10-08T05:31:47.326Z,7.84
2016-10-08T05:32:47.313Z,7.87
2016-10-08T05:33:47.609Z,7.87
2016-10-08T05:34:47.283Z,7.84
2016-10-08T05:35:47.265Z,7.85
2016-10-08T05:36:47.251Z,7.87
2016-10-08T05:37:47.237Z,7.84
2016-10-08T05:38:47.219Z,7.79
2016-10-08T05:39:47.205Z,7.79
2016-10-08T05:40:47.525Z,7.74
2016-10-08T05:41:47.171Z,7.74
2016-10-08T05:42:47.153Z,7.71
2016-10-08T05:43:47.142Z,7.74
2016-10-08T05:44:47.127Z,7.74
2016-10-08T05:45:47.111Z,7.72
2016-10-08T05:46:47.091Z,7.72
2016-10-08T05:47:47.081Z,7.74
2016-10-08T05:48:47.061Z,7.78
2016-10-08T05:49:47.049Z,7.77
2016-10-08T05:50:47.029Z,7.75
2016-10-08T05:51:47.039Z,7.75
2016-10-08T05:52:47.319Z,7.81
2016-10-08T05:53:46.983Z,7.74
2016-10-08T05:54:46.965Z,7.78
2016-10-08T05:55:46.953Z,7.69
2016-10-08T05:56:46.947Z,7.77
2016-10-08T05:57:46.934Z,7.63
2016-10-08T05:58:46.909Z,7.69
2016-10-08T05:59:47.242Z,7.67
2016-10-08T06:00:46.872Z,7.66
2016-10-08T06:01:47.177Z,7.66
2016-10-08T06:02:46.844Z,7.75
2016-10-08T06:03:46.835Z,7.74
2016-10-08T06:04:47.125Z,7.58
2016-10-08T06:05:46.797Z,7.63
2016-10-08T06:06:46.783Z,7.6
2016-10-08T06:07:46.762Z,7.6
2016-10-08T06:08:46.796Z,7.53
2016-10-08T06:09:46.730Z,7.5
2016-10-08T06:10:46.716Z,7.55
2016-10-08T06:11:46.700Z,7.58
2016-10-08T06:12:46.685Z,7.59
2016-10-08T06:13:46.669Z,7.55
2016-10-08T06:14:46.664Z,7.53
2016-10-08T06:15:46.638Z,7.55
2016-10-08T06:16:46.936Z,7.58
2016-10-08T06:17:46.936Z,7.59
2016-10-08T06:18:46.594Z,7.62
2016-10-08T06:19:46.572Z,7.63
2016-10-08T06:20:46.869Z,7.67
2016-10-08T06:21:46.862Z,7.69
2016-10-08T06:22:46.528Z,7.67
2016-10-08T06:23:46.509Z,7.69
2016-10-08T06:24:46.504Z,7.6
2016-10-08T06:25:46.480Z,7.63
2016-10-08T06:26:46.773Z,7.63
2016-10-08T06:27:46.450Z,7.79
2016-10-08T06:28:46.427Z,7.74
2016-10-08T06:29:46.415Z,7.74
2016-10-08T06:30:46.401Z,7.77
2016-10-08T06:31:46.584Z,7.74
2016-10-08T06:32:46.366Z,7.74
2016-10-08T06:33:46.351Z,7.74
2016-10-08T06:34:46.652Z,7.72
2016-10-08T06:35:46.320Z,7.74
2016-10-08T06:36:46.306Z,7.78
2016-10-08T06:37:46.609Z,7.81
2016-10-08T06:38:46.281Z,7.84
2016-10-08T06:39:46.259Z,7.89
2016-10-08T06:40:46.269Z,7.85
2016-10-08T06:41:46.581Z,7.81
2016-10-08T06:42:46.544Z,7.78
2016-10-08T06:43:46.204Z,7.87
2016-10-08T06:44:46.179Z,7.93
2016-10-08T06:45:46.168Z,7.9
2016-10-08T06:46:46.156Z,7.99
2016-10-08T06:47:46.448Z,7.99
2016-10-08T06:48:46.119Z,8
2016-10-08T06:49:46.097Z,8.02
2016-10-08T06:50:46.399Z,7.99
2016-10-08T06:51:46.065Z,8.03
2016-10-08T06:52:46.369Z,8.02
2016-10-08T06:53:46.035Z,8.08
2016-10-08T06:54:46.020Z,8.12
2016-10-08T06:55:46.009Z,8.11
2016-10-08T06:56:45.992Z,8.1
2016-10-08T06:57:45.992Z,8.12
2016-10-08T06:58:46.271Z,8.11
2016-10-08T06:59:45.942Z,8.14
2016-10-08T07:00:45.929Z,8.25
2016-10-08T07:01:45.913Z,8.18
2016-10-08T07:02:46.107Z,8.22
2016-10-08T07:03:46.212Z,8.2
2016-10-08T07:04:45.873Z,8.32
2016-10-08T07:05:45.863Z,8.29
2016-10-08T07:06:45.838Z,8.33
2016-10-08T07:07:45.819Z,8.3
2016-10-08T07:08:45.802Z,8.33
2016-10-08T07:09:45.788Z,8.35
2016-10-08T07:10:45.782Z,8.3
2016-10-08T07:11:45.761Z,8.36
2016-10-08T07:12:45.771Z,8.42
2016-10-08T07:13:45.736Z,8.44
2016-10-08T07:14:45.718Z,8.44
2016-10-08T07:15:45.695Z,8.54
2016-10-08T07:16:45.682Z,8.5
2016-10-08T07:17:45.663Z,8.57
2016-10-08T07:18:45.977Z,8.63
2016-10-08T07:19:45.636Z,8.57
2016-10-08T07:20:45.934Z,8.68
2016-10-08T07:21:45.602Z,8.66
2016-10-08T07:22:45.588Z,8.54
2016-10-08T07:23:45.574Z,8.68
2016-10-08T07:24:45.884Z,8.57
2016-10-08T07:25:45.544Z,8.73
2016-10-08T07:26:45.532Z,8.71
2016-10-08T07:27:45.511Z,8.69
2016-10-08T07:28:45.508Z,8.78
2016-10-08T07:29:45.481Z,8.72
2016-10-08T07:30:45.465Z,8.87
2016-10-08T07:31:45.454Z,8.9
2016-10-08T07:32:45.756Z,8.81
2016-10-08T07:33:45.418Z,8.78
2016-10-08T07:34:45.430Z,8.84
2016-10-08T07:35:45.394Z,8.91
2016-10-08T07:36:45.376Z,8.9
2016-10-08T07:37:45.359Z,8.97
2016-10-08T07:38:45.343Z,8.93
2016-10-08T07:39:45.336Z,8.96
2016-10-08T07:41:13.834Z,8.91
2016-10-08T07:41:46.435Z,9.06
2016-10-08T07:42:45.285Z,9.02
2016-10-08T07:43:45.266Z,9.13
2016-10-08T07:44:45.260Z,9.09
2016-10-08T07:45:45.242Z,9.15
2016-10-08T07:46:45.536Z,9.2
2016-10-08T07:47:45.213Z,9.23
2016-10-08T07:48:45.193Z,9.2
2016-10-08T07:49:45.181Z,9.23
2016-10-08T07:50:45.167Z,9.28
2016-10-08T07:51:45.153Z,9.3
2016-10-08T07:52:45.139Z,9.31
2016-10-08T07:53:45.129Z,9.38
2016-10-08T07:54:45.125Z,9.42
2016-10-08T07:55:45.090Z,9.46
2016-10-08T07:56:45.077Z,9.43
2016-10-08T07:57:45.076Z,9.57
2016-10-08T07:58:45.364Z,9.66
2016-10-08T07:59:45.032Z,9.58
2016-10-08T08:00:45.019Z,9.68
2016-10-08T08:01:45.000Z,9.7
2016-10-08T08:02:45.303Z,9.68
2016-10-08T08:03:44.975Z,9.79
2016-10-08T08:04:44.961Z,9.85
2016-10-08T08:05:44.944Z,9.99
2016-10-08T08:06:44.931Z,9.91
2016-10-08T08:07:44.912Z,9.89
2016-10-08T08:08:44.901Z,10.01
2016-10-08T08:09:45.196Z,10.03
2016-10-08T08:10:44.871Z,10.06
2016-10-08T08:11:44.861Z,10.14
2016-10-08T08:12:44.850Z,10.18
2016-10-08T08:13:45.142Z,10.3
2016-10-08T08:14:44.815Z,10.34
2016-10-08T08:15:44.798Z,10.34
2016-10-08T08:16:44.783Z,10.32
2016-10-08T08:17:44.769Z,10.42
2016-10-08T08:18:44.759Z,10.44
2016-10-08T08:19:45.057Z,10.51
2016-10-08T08:20:44.740Z,10.53
2016-10-08T08:21:45.037Z,10.66
2016-10-08T08:22:44.699Z,10.7
2016-10-08T08:23:45.019Z,10.7
2016-10-08T08:24:44.988Z,10.63
2016-10-08T08:25:44.660Z,10.77
2016-10-08T08:26:44.648Z,10.86
2016-10-08T08:27:44.645Z,10.91
2016-10-08T08:28:44.617Z,10.86
2016-10-08T08:29:44.603Z,10.91
2016-10-08T08:30:44.591Z,11.01
2016-10-08T08:31:44.581Z,10.95
2016-10-08T08:32:44.566Z,11.01
2016-10-08T08:33:44.552Z,11.03
2016-10-08T08:34:44.543Z,10.99
2016-10-08T08:35:44.529Z,11.09
2016-10-08T08:36:44.824Z,11.14
2016-10-08T08:37:44.809Z,11.1
2016-10-08T08:38:44.483Z,11.1
2016-10-08T08:39:44.482Z,11.43
2016-10-08T08:40:44.460Z,11.47
2016-10-08T08:41:44.452Z,11.52
2016-10-08T08:42:44.429Z,11.54
2016-10-08T08:43:44.419Z,11.46
2016-10-08T08:44:44.413Z,11.36
2016-10-08T08:45:45.031Z,11.35
2016-10-08T08:46:44.379Z,11.35
2016-10-08T08:47:44.364Z,11.27
2016-10-08T08:48:44.364Z,11.24
2016-10-08T08:49:44.347Z,11.2
2016-10-08T08:50:44.326Z,11.17
2016-10-08T08:51:44.318Z,11.14
2016-10-08T08:52:44.304Z,11.16
2016-10-08T08:53:44.601Z,11.14
2016-10-08T08:54:44.279Z,11.14
2016-10-08T08:55:44.261Z,11.03
2016-10-08T08:56:44.577Z,11.06
2016-10-08T08:57:44.234Z,11.1
2016-10-08T08:58:44.223Z,10.99
2016-10-08T08:59:44.209Z,11.02
2016-10-08T09:00:44.203Z,10.94
2016-10-08T09:01:44.188Z,10.99
2016-10-08T09:02:44.586Z,10.99
2016-10-08T09:03:44.166Z,10.99
2016-10-08T09:04:44.151Z,11.09
2016-10-08T09:05:44.128Z,11.09
2016-10-08T09:06:44.138Z,11.1
2016-10-08T09:07:44.103Z,11.1
2016-10-08T09:08:44.097Z,11.06
2016-10-08T09:09:44.079Z,11.17
2016-10-08T09:10:44.381Z,11.28
2016-10-08T09:11:44.681Z,11.36
2016-10-08T09:12:44.042Z,11.32
2016-10-08T09:13:44.030Z,11.34
2016-10-08T09:14:44.018Z,11.35
2016-10-08T09:15:43.999Z,11.39
2016-10-08T09:16:43.991Z,11.31
2016-10-08T09:17:43.973Z,11.38
2016-10-08T09:18:44.273Z,11.43
2016-10-08T09:19:44.260Z,11.36
2016-10-08T09:20:43.969Z,11.41
2016-10-08T09:21:44.239Z,11.43
2016-10-08T09:22:43.912Z,11.38
2016-10-08T09:23:43.927Z,11.52
2016-10-08T09:24:43.902Z,11.49
2016-10-08T09:25:43.872Z,11.5
2016-10-08T09:26:44.184Z,11.57
2016-10-08T09:27:43.848Z,11.54
2016-10-08T09:28:43.841Z,11.53
2016-10-08T09:29:44.140Z,11.61
2016-10-08T09:30:43.831Z,11.65
2016-10-08T09:31:43.835Z,11.61
2016-10-08T09:32:43.791Z,11.68
2016-10-08T09:33:43.780Z,11.82
2016-10-08T09:34:43.839Z,11.82
2016-10-08T09:35:43.748Z,11.9
2016-10-08T09:36:43.734Z,11.97
2016-10-08T09:37:43.724Z,11.85
2016-10-08T09:38:43.713Z,11.94
2016-10-08T09:39:43.694Z,11.94
2016-10-08T09:40:43.686Z,11.97
2016-10-08T09:41:43.673Z,12.01
2016-10-08T09:42:44.293Z,11.93
2016-10-08T09:43:43.650Z,11.97
2016-10-08T09:44:43.635Z,12.05
2016-10-08T09:45:43.939Z,12.12
2016-10-08T09:46:43.615Z,12.11
2016-10-08T09:47:43.604Z,12.23
2016-10-08T09:48:43.594Z,12.23
2016-10-08T09:49:43.577Z,12.24
2016-10-08T09:50:43.563Z,12.38
2016-10-08T09:51:43.555Z,12.37
2016-10-08T09:52:43.877Z,12.39
2016-10-08T09:53:43.534Z,12.42
2016-10-08T09:54:43.515Z,12.46
2016-10-08T09:55:43.505Z,12.48
2016-10-08T09:56:43.491Z,12.46
2016-10-08T09:57:43.487Z,12.59
2016-10-08T09:58:43.473Z,12.67
2016-10-08T09:59:43.458Z,12.62
2016-10-08T10:00:43.764Z,12.66
2016-10-08T10:01:43.436Z,12.7
2016-10-08T10:02:43.524Z,12.7
2016-10-08T10:03:43.724Z,12.85
2016-10-08T10:04:43.403Z,12.81
2016-10-08T10:05:43.703Z,12.87
2016-10-08T10:06:43.442Z,13.03
2016-10-08T10:07:43.368Z,13.07
2016-10-08T10:08:43.366Z,13.14
2016-10-08T10:09:43.349Z,13.25
2016-10-08T10:10:43.342Z,13.32
2016-10-08T10:11:43.330Z,13.3
2016-10-08T10:12:43.630Z,13.2
2016-10-08T10:13:43.321Z,13.32
2016-10-08T10:14:43.607Z,13.27
2016-10-08T10:15:43.595Z,13.27
2016-10-08T10:16:43.309Z,13.4
2016-10-08T10:17:43.257Z,13.47
2016-10-08T10:18:43.254Z,13.44
2016-10-08T10:19:43.242Z,13.56
2016-10-08T10:20:43.231Z,13.55
2016-10-08T10:21:43.223Z,13.59
2016-10-08T10:22:43.266Z,13.65
2016-10-08T10:23:43.200Z,13.71
2016-10-08T10:24:43.718Z,13.58
2016-10-08T10:25:43.177Z,13.67
2016-10-08T10:26:43.162Z,13.61
2016-10-08T10:27:43.207Z,13.69
2016-10-08T10:28:43.457Z,13.74
2016-10-08T10:29:43.139Z,13.8
2016-10-08T10:30:43.127Z,13.81
2016-10-08T10:31:43.110Z,13.79
2016-10-08T10:32:43.103Z,13.89
2016-10-08T10:33:43.102Z,13.87
2016-10-08T10:34:43.709Z,13.95
2016-10-08T10:35:43.069Z,13.96
2016-10-08T10:36:43.088Z,13.94
2016-10-08T10:37:43.050Z,13.99
2016-10-08T10:38:43.038Z,14.07
2016-10-08T10:39:43.249Z,14.07
2016-10-08T10:40:43.333Z,14.13
2016-10-08T10:41:43.049Z,14.19
2016-10-08T10:42:42.999Z,14.52
2016-10-08T10:43:42.990Z,14.86
2016-10-08T10:44:42.978Z,15.28
2016-10-08T10:45:42.979Z,15.31
2016-10-08T10:46:42.965Z,15.59
2016-10-08T10:47:42.955Z,15.46
2016-10-08T10:48:42.940Z,15.36
2016-10-08T10:49:42.937Z,15.52
2016-10-08T10:50:42.930Z,15.56
2016-10-08T10:51:43.234Z,15.59
2016-10-08T10:52:42.907Z,15.52
2016-10-08T10:53:42.904Z,15.57
2016-10-08T10:54:42.892Z,15.63
2016-10-08T10:55:42.885Z,15.64
2016-10-08T10:56:42.875Z,15.6
2016-10-08T10:57:42.871Z,15.56
2016-10-08T10:58:43.178Z,15.52
2016-10-08T10:59:43.167Z,15.51
2016-10-08T11:00:43.171Z,15.46
2016-10-08T11:01:42.850Z,15.33
2016-10-08T11:02:43.142Z,15.39
2016-10-08T11:03:42.862Z,15.38
2016-10-08T11:04:43.123Z,15.31
2016-10-08T11:05:42.800Z,15.31
2016-10-08T11:06:42.794Z,15.27
2016-10-08T11:07:42.792Z,15.48
2016-10-08T11:08:43.146Z,15.56
2016-10-08T11:09:42.780Z,15.6
2016-10-08T11:10:42.765Z,15.67
2016-10-08T11:11:42.772Z,15.63
2016-10-08T11:12:43.058Z,15.56
2016-10-08T11:13:42.791Z,15.56
2016-10-08T11:14:42.729Z,15.52
2016-10-08T11:15:42.737Z,15.52
2016-10-08T11:16:42.712Z,15.48
2016-10-08T11:17:42.708Z,15.43
2016-10-08T11:18:43.010Z,15.41
2016-10-08T11:19:42.689Z,15.31
2016-10-08T11:20:42.683Z,15.27
2016-10-08T11:21:42.672Z,15.28
2016-10-08T11:22:42.977Z,15.23
2016-10-08T11:23:43.028Z,15.17
2016-10-08T11:24:42.651Z,15.2
2016-10-08T11:25:42.638Z,15.17
2016-10-08T11:26:42.628Z,15.21
2016-10-08T11:27:42.936Z,15.24
2016-10-08T11:28:42.664Z,15.23
2016-10-08T11:29:42.602Z,15.27
2016-10-08T11:30:42.592Z,15.3
2016-10-08T11:31:42.586Z,15.24
2016-10-08T11:32:42.590Z,15.27
2016-10-08T11:33:42.574Z,15.19
2016-10-08T11:34:42.560Z,15.3
2016-10-08T11:35:42.866Z,15.24
2016-10-08T11:36:42.857Z,15.13
2016-10-08T11:37:42.540Z,15.17
2016-10-08T11:38:42.562Z,15.09
2016-10-08T11:39:42.520Z,15.3
2016-10-08T11:40:42.510Z,15.45
2016-10-08T11:41:42.504Z,15.48
2016-10-08T11:42:42.493Z,15.72
2016-10-08T11:43:42.540Z,16.22
2016-10-08T11:44:42.485Z,16.58
2016-10-08T11:45:42.469Z,16.9
2016-10-08T11:46:42.797Z,16.89
2016-10-08T11:47:42.781Z,17.08
2016-10-08T11:48:42.457Z,17.1
2016-10-08T11:49:42.446Z,17.14
2016-10-08T11:50:42.439Z,16.93
2016-10-08T11:51:42.435Z,16.77
2016-10-08T11:52:42.430Z,16.37
2016-10-08T11:53:42.430Z,16.2
2016-10-08T11:54:42.421Z,16.07
2016-10-08T11:55:42.411Z,15.99
2016-10-08T11:56:42.407Z,15.74
2016-10-08T11:57:42.403Z,15.54
2016-10-08T11:58:42.396Z,15.43
2016-10-08T11:59:42.395Z,15.26
2016-10-08T12:00:42.395Z,15.24
2016-10-08T12:01:42.380Z,15.23
2016-10-08T12:02:42.367Z,15.11
2016-10-08T12:03:42.365Z,15.09
2016-10-08T12:04:42.364Z,15.09
2016-10-08T12:05:42.345Z,15.05
2016-10-08T12:06:42.346Z,15.08
2016-10-08T12:07:42.333Z,15.13
2016-10-08T12:08:42.333Z,15.15
2016-10-08T12:09:42.316Z,15.2
2016-10-08T12:10:42.325Z,15.24
2016-10-08T12:11:42.313Z,15.27
2016-10-08T12:12:42.616Z,15.35
2016-10-08T12:13:42.669Z,15.41
2016-10-08T12:14:42.281Z,15.45
2016-10-08T12:15:42.595Z,15.54
2016-10-08T12:16:42.272Z,15.61
2016-10-08T12:17:42.260Z,15.6
2016-10-08T12:18:42.247Z,15.61
2016-10-08T12:19:42.240Z,15.75
2016-10-08T12:20:42.229Z,15.78
2016-10-08T12:21:42.231Z,15.76
2016-10-08T12:22:42.220Z,15.79
2016-10-08T12:23:42.233Z,15.75
2016-10-08T12:24:42.204Z,15.86
2016-10-08T12:25:42.191Z,15.82
2016-10-08T12:26:42.188Z,15.76
2016-10-08T12:27:42.488Z,15.72
2016-10-08T12:28:42.535Z,15.76
2016-10-08T12:29:42.159Z,15.76
2016-10-08T12:30:42.155Z,15.66
2016-10-08T12:31:42.143Z,15.66
2016-10-08T12:32:42.450Z,15.61
2016-10-08T12:33:42.129Z,15.88
2016-10-08T12:34:42.136Z,15.96
2016-10-08T12:35:42.113Z,15.85
2016-10-08T12:36:42.107Z,15.82
2016-10-08T12:37:42.097Z,16.06
2016-10-08T12:38:42.141Z,16.88
2016-10-08T12:39:42.085Z,17.51
2016-10-08T12:40:42.073Z,17.94
2016-10-08T12:41:42.079Z,18.33
2016-10-08T12:42:42.392Z,18.98
2016-10-08T12:43:42.050Z,19.55
2016-10-08T12:44:42.046Z,19.78
2016-10-08T12:45:42.377Z,20.2
2016-10-08T12:46:42.034Z,20.59
2016-10-08T12:47:42.030Z,20.58
2016-10-08T12:48:42.338Z,20.21
2016-10-08T12:49:42.023Z,20
2016-10-08T12:50:42.326Z,19.75
2016-10-08T12:51:42.013Z,19.42
2016-10-08T12:52:42.325Z,19.02
2016-10-08T12:53:42.006Z,18.74
2016-10-08T12:54:42.001Z,18.39
2016-10-08T12:55:42.014Z,17.84
2016-10-08T12:56:42.001Z,17.55
2016-10-08T12:57:41.989Z,17.26
2016-10-08T12:58:41.997Z,17.51
2016-10-08T12:59:42.296Z,17.73
2016-10-08T13:00:41.981Z,18.09
2016-10-08T13:01:41.971Z,18.67
2016-10-08T13:02:41.960Z,19.13
2016-10-08T13:03:42.162Z,19.54
2016-10-08T13:04:41.960Z,20.06
2016-10-08T13:05:42.266Z,20.15